Latest Weather Observations for Wangaratta

IDV60801

Issued at 4:02 pm EST Friday 29 May 2015 (issued every 30 minutes, with the page automatically refreshed every 10 minutes)

About weather observations | Map of weather stations | Latest weather observations for VIC | Other Formats
Station Details ID: 082138 Name: WANGARATTA AERO Lat: -36.42 Lon: 146.31 Height: 152.6 m
Data from the previous 72 hours. | See also: Recent months at Wangaratta
Date/Time
EST
Temp
°C
App
Temp
°C
Dew
Point
Rel
Hum
%
Delta-T
°C
Wind Press
QNH
hPa
Press
MSL
hPa
Rain
since 9 am
mm
Dir
 
Spd
km/h
Gust
km/h
Spd
kts
Gust
kts
29/04:00pm 12.7 9.8 6.5 66 3.0 W 11 13 6 7 1021.8 1021.9 0.0
29/03:30pm 13.3 9.9 5.7 60 3.6 W 13 17 7 9 1021.8 1021.9 0.0
29/03:00pm 15.2 12.2 6.0 54 4.4 SW 11 15 6 8 1021.7 1021.8 0.0
29/02:30pm 14.7 11.8 6.5 58 4.0 SW 11 17 6 9 1021.6 1021.7 0.0
29/02:00pm 14.6 11.3 6.4 58 4.0 WNW 13 17 7 9 1021.6 1021.7 0.0
29/01:30pm 14.9 10.8 6.2 56 4.2 WNW 17 22 9 12 1021.8 1021.9 0.0
29/01:00pm 14.4 11.9 6.5 59 3.8 WSW 9 15 5 8 1022.0 1022.1 0.0
29/12:30pm 14.4 10.7 6.3 58 3.9 W 15 22 8 12 1022.1 1022.2 0.0
29/12:00pm 14.2 11.6 7.7 65 3.2 SW 11 17 6 9 1022.4 1022.6 0.0
29/11:30am 13.7 11.0 7.5 66 3.1 SSW 11 17 6 9 1022.7 1022.9 0.0
29/11:00am 12.5 11.4 8.4 76 2.0 S 4 7 2 4 1022.8 1023.0 0.0
29/10:30am 11.9 9.4 8.2 78 1.8 SSW 11 17 6 9 1023.1 1023.3 0.0
29/10:00am 11.8 10.6 9.5 86 1.2 SSW 6 9 3 5 1022.8 1023.0 0.0
29/09:30am 10.8 9.4 9.6 92 0.6 SSE 7 9 4 5 1022.6 1022.8 0.0
29/09:00am 9.1 8.1 8.8 98 0.1 WNW 4 9 2 5 1022.4 1022.6 2.0
29/08:30am 8.1 5.6 8.0 99 0.0 WNW 11 15 6 8 1021.9 1022.0 2.0
29/08:00am 7.6 6.2 7.3 98 0.1 NNE 4 7 2 4 1021.5 1021.6 2.0
29/07:30am 8.0 7.4 7.6 97 0.2 CALM 0 0 0 0 1020.9 1021.0 2.0
29/07:00am 8.6 6.8 7.8 95 0.4 SW 7 13 4 7 1020.9 1021.0 2.0
29/06:30am 8.9 6.8 8.3 96 0.3 SW 9 13 5 7 1020.8 1020.9 2.0
29/06:00am 10.2 8.8 9.0 92 0.6 NNW 6 7 3 4 1020.0 1020.1 2.0
29/05:30am 10.8 8.9 9.2 90 0.8 WNW 9 22 5 12 1020.5 1020.6 2.0
29/05:00am 11.5 8.6 9.8 89 0.9 W 15 20 8 11 1020.4 1020.5 2.0
29/04:30am 10.5 8.4 9.6 94 0.5 W 11 15 6 8 1020.0 1020.1 2.0
29/04:00am 11.4 9.9 10.6 95 0.4 WNW 9 13 5 7 1019.5 1019.6 2.0
29/03:30am 9.6 7.8 9.5 99 0.1 WNW 9 11 5 6 1019.3 1019.4 1.8
29/03:00am 8.2 7.8 8.1 99 0.0 CALM 0 6 0 3 1019.2 1019.3 1.8
29/02:30am 8.3 6.7 8.2 99 0.0 S 6 13 3 7 1019.1 1019.2 1.8
29/02:00am 8.8 8.1 8.7 99 0.0 NNE 2 7 1 4 1018.9 1019.0 1.8
29/01:30am 8.4 6.9 8.3 99 0.0 NW 6 9 3 5 1018.9 1019.0 1.8
29/01:00am 9.5 8.3 9.4 99 0.0 WSW 6 9 3 5 1018.8 1018.9 1.8
29/12:30am 8.9 8.3 8.8 99 0.0 SE 2 7 1 4 1018.8 1018.9 1.8
29/12:00am 9.5 9.4 9.4 99 0.0 CALM 0 4 0 2 1018.7 1018.8 1.8
 
Date/Time
EST
Temp
°C
App
Temp
°C
Dew
Point
Rel
Hum
%
Delta-T
°C
Wind Press
QNH
hPa
Press
MSL
hPa
Rain
since 9 am
mm
Dir
 
Spd
km/h
Gust
km/h
Spd
kts
Gust
kts
28/11:30pm 9.3 8.0 9.2 99 0.0 SW 6 7 3 4 1018.7 1018.8 1.8
28/11:00pm 9.3 8.4 9.2 99 0.0 NNE 4 7 2 4 1018.5 1018.6 1.8
28/10:30pm 10.1 9.7 9.9 99 0.1 ESE 2 7 1 4 1018.6 1018.7 1.8
28/10:00pm 10.4 8.8 10.2 99 0.1 ESE 9 11 5 6 1018.6 1018.7 1.8
28/09:30pm 11.0 10.1 10.8 99 0.1 SE 6 7 3 4 1018.8 1018.9 1.8
28/09:00pm 11.2 10.3 10.6 96 0.3 ESE 6 7 3 4 1018.5 1018.6 1.8
28/08:30pm 12.5 11.9 11.7 95 0.4 N 6 11 3 6 1018.1 1018.3 1.8
28/08:00pm 13.6 12.7 12.7 94 0.5 N 9 11 5 6 1018.0 1018.2 1.8
28/07:30pm 13.9 11.4 12.3 90 0.9 N 17 20 9 11 1017.7 1017.9 1.8
28/07:00pm 14.4 12.2 12.1 86 1.3 N 15 20 8 11 1017.8 1018.0 1.8
28/06:30pm 14.4 13.0 12.1 86 1.3 N 11 13 6 7 1017.6 1017.8 1.6
28/06:00pm 14.8 13.0 12.1 84 1.5 NNW 13 17 7 9 1017.8 1018.0 1.6
28/05:30pm 15.0 12.9 12.5 85 1.4 NNW 15 20 8 11 1017.9 1018.1 1.4
28/05:00pm 15.3 13.3 12.6 84 1.5 NNW 15 22 8 12 1017.5 1017.7 1.4
28/04:30pm 15.3 12.6 12.8 85 1.4 NNW 19 26 10 14 1017.5 1017.7 1.4
28/04:00pm 15.9 13.9 12.6 81 1.8 N 15 19 8 10 1017.3 1017.5 1.2
28/03:30pm 16.2 14.9 13.7 85 1.4 N 13 19 7 10 1017.4 1017.6 1.2
28/03:00pm 16.1 15.5 14.5 90 0.9 N 11 15 6 8 1017.6 1017.8 1.2
28/02:30pm 16.2 15.7 13.7 85 1.4 NNE 9 13 5 7 1017.6 1017.8 1.2
28/02:00pm 16.6 15.1 13.1 80 2.0 NNE 13 15 7 8 1017.6 1017.8 0.0
28/01:30pm 16.4 14.1 13.1 81 1.9 NNE 17 26 9 14 1018.5 1018.6 0.0
28/01:00pm 15.7 14.1 12.8 83 1.6 NNE 13 17 7 9 1019.0 1019.1 0.0
28/12:30pm 14.7 12.7 12.6 87 1.2 NNE 15 19 8 10 1019.7 1019.8 0.0
28/12:00pm 14.1 12.0 12.3 89 1.0 NNE 15 22 8 12 1020.1 1020.2 0.0
28/11:30am 13.6 10.7 12.2 91 0.8 NNE 19 24 10 13 1020.7 1020.8 0.0
28/11:00am 13.5 11.7 12.1 91 0.8 NNE 13 19 7 10 1021.4 1021.5 0.0
28/10:30am 12.8 13.4 11.9 94 0.5 CALM 0 0 0 0 1021.7 1021.8 0.0
28/10:00am 12.6 12.5 12.1 97 0.3 WNW 4 7 2 4 1021.9 1022.0 0.0
28/09:30am 12.3 11.8 12.1 99 0.1 NE 6 7 3 4 1021.7 1021.8 0.0
28/09:00am 11.8 11.9 11.6 99 0.1 E 2 9 1 5 1021.5 1021.6 3.8
28/08:30am 11.5 11.9 11.3 99 0.1 CALM 0 0 0 0 1021.8 1021.9 3.8
28/08:00am 11.1 11.4 10.9 99 0.1 CALM 0 0 0 0 1021.4 1021.5 3.8
28/07:30am 10.9 11.1 10.7 99 0.1 CALM 0 0 0 0 1021.6 1021.7 3.8
28/07:00am 10.8 10.3 10.6 99 0.1 SE 4 7 2 4 1021.2 1021.3 3.8
28/06:30am 11.0 10.5 10.8 99 0.1 NNW 4 9 2 5 1021.0 1021.1 3.8
28/06:00am 10.9 9.8 10.7 99 0.1 NNE 7 11 4 6 1020.6 1020.7 3.8
28/05:30am 10.9 9.4 10.7 99 0.1 NNE 9 13 5 7 1020.8 1020.9 3.4
28/05:00am 11.2 11.5 10.9 98 0.2 CALM 0 6 0 3 1020.7 1020.8 3.4
28/04:30am 11.2 10.7 10.9 98 0.2 W 4 11 2 6 1020.7 1020.8 3.4
28/04:00am 10.3 8.3 10.0 98 0.2 SW 11 15 6 8 1021.0 1021.1 0.2
28/03:30am 9.9 8.7 9.6 98 0.2 SE 6 7 3 4 1020.8 1020.9 0.0
28/03:00am 9.6 9.5 9.3 98 0.1 CALM 0 0 0 0 1021.1 1021.2 0.0
28/02:30am 9.6 8.7 9.3 98 0.1 SSW 4 7 2 4 1021.3 1021.4 0.0
28/02:00am 9.5 9.3 9.2 98 0.1 CALM 0 0 0 0 1021.3 1021.4 0.0
28/01:30am 9.2 8.9 8.7 97 0.2 CALM 0 6 0 3 1021.3 1021.4 0.0
28/01:00am 9.2 7.7 8.6 96 0.3 W 6 7 3 4 1021.5 1021.6 0.0
28/12:30am 9.6 9.4 9.0 96 0.3 CALM 0 0 0 0 1021.6 1021.7 0.0
28/12:00am 9.2 7.7 8.6 96 0.3 SW 6 9 3 5 1022.0 1022.1 0.0
 
Date/Time
EST
Temp
°C
App
Temp
°C
Dew
Point
Rel
Hum
%
Delta-T
°C
Wind Press
QNH
hPa
Press
MSL
hPa
Rain
since 9 am
mm
Dir
 
Spd
km/h
Gust
km/h
Spd
kts
Gust
kts
27/11:30pm 9.3 9.0 8.7 96 0.3 CALM 0 0 0 0 1022.2 1022.4 0.0
27/11:00pm 9.2 7.7 8.4 95 0.4 WSW 6 7 3 4 1022.1 1022.2 0.0
27/10:30pm 9.5 8.1 8.7 95 0.4 SW 6 6 3 3 1022.1 1022.2 0.0
27/10:00pm 9.1 8.2 7.9 92 0.6 ENE 2 6 1 3 1022.2 1022.4 0.0
27/09:30pm 10.1 9.8 8.5 90 0.8 CALM 0 0 0 0 1022.2 1022.4 0.0
27/09:00pm 11.1 9.6 8.5 84 1.3 ENE 6 6 3 3 1022.2 1022.4 0.0
27/08:30pm 12.1 10.7 8.9 81 1.6 E 6 7 3 4 1022.3 1022.5 0.0
27/08:00pm 12.5 11.0 9.1 80 1.7 E 7 7 4 4 1022.3 1022.5 0.0
27/07:30pm 12.8 10.9 9.1 78 1.9 E 9 9 5 5 1022.2 1022.4 0.0
27/07:00pm 13.1 11.7 9.5 79 1.8 E 7 9 4 5 1022.0 1022.1 0.0
27/06:30pm 13.4 12.0 9.5 77 2.0 E 7 9 4 5 1021.7 1021.8 0.0
27/06:00pm 13.7 12.2 9.2 74 2.3 ENE 7 11 4 6 1021.5 1021.6 0.0
27/05:30pm 13.5 11.7 9.4 76 2.1 E 9 11 5 6 1021.3 1021.4 0.0
27/05:00pm 14.0 12.5 9.2 73 2.5 E 7 9 4 5 1021.3 1021.4 0.0
27/04:30pm 14.3 12.4 9.1 71 2.7 ENE 9 13 5 7 1021.2 1021.3 0.0
27/04:00pm 14.6 12.0 9.2 70 2.8 ENE 13 19 7 10 1021.2 1021.3 0.0
27/03:30pm 14.8 12.2 9.4 70 2.8 NE 13 17 7 9 1021.3 1021.4 0.0
27/03:00pm 14.6 11.2 9.0 69 2.9 NNE 17 19 9 10 1021.3 1021.4 0.0
27/02:30pm 14.9 11.5 9.3 69 2.9 NNE 17 20 9 11 1021.3 1021.4 0.0
27/02:00pm 14.8 11.4 9.0 68 3.0 N 17 20 9 11 1021.5 1021.6 0.0
27/01:30pm 14.6 10.7 8.8 68 3.0 NNE 19 24 10 13 1021.7 1021.8 0.0
27/01:00pm 14.6 11.5 8.8 68 3.0 N 15 22 8 12 1022.2 1022.4 0.0
27/12:30pm 14.0 12.3 8.2 68 2.9 NE 7 11 4 6 1022.4 1022.6 0.0
27/12:00pm 13.4 11.7 7.6 68 2.9 N 6 11 3 6 1023.0 1023.2 0.0
27/11:30am 13.4 11.7 7.6 68 2.9 NNE 6 9 3 5 1023.5 1023.7 0.0
27/11:00am 12.6 11.1 8.3 75 2.1 NE 6 9 3 5 1023.7 1023.9 0.0
27/10:30am 11.7 10.2 8.6 81 1.5 NNE 6 7 3 4 1024.0 1024.2 0.0
27/10:00am 10.7 10.1 8.8 88 0.9 ESE 2 7 1 4 1024.2 1024.4 0.0
27/09:30am 9.7 9.4 8.8 94 0.4 CALM 0 0 0 0 1024.1 1024.3 0.0
27/09:00am 9.1 8.8 8.6 97 0.2 CALM 0 0 0 0 1024.2 1024.4 -
27/08:30am 8.7 7.2 8.6 99 0.0 SSW 6 7 3 4 1024.4 1024.6 -
27/08:00am 8.4 8.0 8.3 99 0.0 CALM 0 0 0 0 1024.2 1024.4 -
27/07:30am 8.0 6.4 7.9 99 0.0 SSW 6 11 3 6 1024.1 1024.3 -
27/07:00am 8.0 6.4 7.9 99 0.0 E 6 9 3 5 1024.0 1024.2 -
27/06:30am 8.0 6.2 7.9 99 0.0 NNE 7 9 4 5 1024.1 1024.3 -
27/06:00am 7.8 6.9 7.7 99 0.0 E 2 6 1 3 1023.9 1024.1 -
27/05:30am 7.9 6.6 7.8 99 0.0 S 4 6 2 3 1024.0 1024.2 -
27/05:00am 7.6 6.3 7.5 99 0.0 SSW 4 9 2 5 1023.8 1024.0 -
27/04:30am 6.8 4.9 6.5 98 0.1 WNW 6 7 3 4 1023.8 1024.0 -
27/04:00am 7.1 6.4 6.8 98 0.1 CALM 0 0 0 0 1023.7 1023.9 -
27/03:30am 7.3 6.6 7.0 98 0.1 CALM 0 0 0 0 1024.0 1024.2 -
27/03:00am 7.3 6.6 6.9 97 0.2 CALM 0 0 0 0 1024.1 1024.3 0.0
27/02:30am 7.2 5.7 6.8 97 0.2 SW 4 7 2 4 1024.4 1024.6 -
27/02:00am 7.3 5.4 6.7 96 0.3 W 6 6 3 3 1024.6 1024.8 -
27/01:30am 8.0 6.3 7.4 96 0.3 SSW 6 7 3 4 1024.6 1024.8 -
27/01:00am 7.8 6.4 7.2 96 0.3 SW 4 9 2 5 1025.0 1025.2 -
27/12:30am 8.1 7.5 7.3 95 0.4 CALM 0 0 0 0 1025.4 1025.5 -
27/12:00am 8.0 7.4 7.2 95 0.4 CALM 0 0 0 0 1025.7 1025.8 -
 
Date/Time
EST
Temp
°C
App
Temp
°C
Dew
Point
Rel
Hum
%
Delta-T
°C
Wind Press
QNH
hPa
Press
MSL
hPa
Rain
since 9 am
mm
Dir
 
Spd
km/h
Gust
km/h
Spd
kts
Gust
kts
26/11:30pm 8.1 6.1 7.3 95 0.4 S 7 7 4 4 1025.8 1025.9 -
26/11:00pm 7.8 6.7 6.9 94 0.4 WSW 2 6 1 3 1026.0 1026.1 -
26/10:30pm 7.9 6.4 7.0 94 0.4 S 4 6 2 3 1026.0 1026.1 -
26/10:00pm 8.0 6.2 7.2 95 0.4 SSW 6 7 3 4 1026.0 1026.1 -
26/09:30pm 7.7 6.9 6.5 92 0.6 CALM 0 0 0 0 1025.9 1026.0 -
26/09:00pm 8.7 8.1 7.3 91 0.7 CALM 0 0 0 0 1025.8 1025.9 -
26/08:30pm 8.4 6.9 6.9 90 0.7 W 4 7 2 4 1026.1 1026.2 -
26/08:00pm 9.3 7.6 7.4 88 0.9 ENE 6 6 3 3 1026.2 1026.3 -
26/07:30pm 9.6 7.9 7.5 87 1.0 ENE 6 7 3 4 1026.3 1026.4 -
26/07:00pm 9.6 7.9 7.4 86 1.0 NE 6 7 3 4 1026.3 1026.4 -
26/06:30pm 10.7 10.2 7.8 82 1.4 CALM 0 0 0 0 1026.3 1026.4 -
26/06:00pm 10.9 9.2 7.6 80 1.6 NW 6 6 3 3 1026.4 1026.5 -
26/05:30pm 10.8 8.5 7.5 80 1.6 NW 9 13 5 7 1026.4 1026.5 -
26/05:00pm 11.4 10.4 7.5 77 1.9 ESE 2 9 1 5 1025.9 1026.0 -
26/04:30pm 12.4 10.6 7.9 74 2.2 ENE 7 9 4 5 1025.7 1025.8 -

Other Formats:

Comma delimited format used in spreadsheet applications
http://www.bom.gov.au/fwo/IDV60801/IDV60801.94889.axf

JavaScript Object Notation format (JSON) in row-major order
http://www.bom.gov.au/fwo/IDV60801/IDV60801.94889.json